Time;durP1;ratioP1;P1;durP2;ratioP2;P2;SDS_P1;SDS_P2;PMS_P1;PMS_P2;Temp;Humidity;BMP_temperature;BMP_pressure;BME280_temperature;BME280_humidity;BME280_pressure;Samples;Min_cycle;Max_cycle;Signal;HPM_P1;HPM_P2
2023/06/24 00:02:15;;;;;;;9.40;8.30;;;16.60;99.90;;;;;;5016414;28;20946;-49
2023/06/24 00:04:42;;;;;;;12.50;8.90;;;16.60;99.90;;;;;;5010696;28;20319;-51
2023/06/24 00:07:09;;;;;;;12.33;9.63;;;16.60;99.90;;;;;;5017368;28;20207;-50
2023/06/24 00:09:37;;;;;;;10.70;9.03;;;16.60;99.90;;;;;;5025101;28;20200;-47
2023/06/24 00:12:07;;;;;;;10.70;8.23;;;16.60;99.90;;;;;;5019569;28;20207;-51
2023/06/24 00:14:33;;;;;;;13.97;8.43;;;16.60;99.90;;;;;;5024595;28;20561;-50
2023/06/24 00:17:00;;;;;;;11.97;9.07;;;16.60;99.90;;;;;;5020072;28;20199;-49
2023/06/24 00:19:28;;;;;;;9.47;8.47;;;16.50;99.90;;;;;;5020115;28;20253;-51
2023/06/24 00:21:54;;;;;;;9.87;8.87;;;16.50;99.90;;;;;;5011314;28;20305;-51
2023/06/24 00:24:25;;;;;;;10.83;9.53;;;16.50;99.90;;;;;;5021805;28;20958;-47
2023/06/24 00:26:52;;;;;;;11.13;8.97;;;16.40;99.90;;;;;;5021890;28;20204;-49
2023/06/24 00:29:21;;;;;;;9.90;8.47;;;16.40;99.90;;;;;;5015725;28;20874;-48
2023/06/24 00:31:48;;;;;;;12.77;10.57;;;16.40;99.90;;;;;;5016008;28;20215;-52
2023/06/24 00:34:15;;;;;;;12.40;9.83;;;16.40;99.90;;;;;;5019609;28;20223;-51
2023/06/24 00:36:43;;;;;;;11.63;10.40;;;16.40;99.90;;;;;;5011519;28;20203;-54
2023/06/24 00:39:10;;;;;;;14.10;10.70;;;16.30;99.90;;;;;;5020712;28;20283;-53
2023/06/24 00:41:37;;;;;;;12.97;11.67;;;16.30;99.90;;;;;;5018973;28;20219;-51
2023/06/24 00:44:04;;;;;;;12.13;9.93;;;16.30;99.90;;;;;;5019068;28;20220;-54
2023/06/24 00:46:33;;;;;;;12.43;9.93;;;16.30;99.90;;;;;;5022069;28;20192;-53
2023/06/24 00:49:02;;;;;;;11.60;10.40;;;16.20;99.90;;;;;;5021541;28;20291;-52
2023/06/24 00:51:31;;;;;;;12.03;10.10;;;16.20;99.90;;;;;;5011230;28;21659;-52
2023/06/24 00:53:58;;;;;;;11.90;9.80;;;16.20;99.90;;;;;;5017046;28;20215;-50
2023/06/24 00:56:30;;;;;;;13.33;10.60;;;16.20;99.90;;;;;;5020720;28;20283;-52
2023/06/24 00:59:00;;;;;;;11.57;9.80;;;16.10;99.90;;;;;;5007610;28;20215;-53
2023/06/24 01:01:28;;;;;;;11.97;10.57;;;16.10;99.90;;;;;;5021973;28;20216;-50
2023/06/24 01:03:56;;;;;;;12.40;10.83;;;16.10;99.90;;;;;;5022962;28;20196;-48
2023/06/24 01:06:23;;;;;;;11.80;10.60;;;16.10;99.90;;;;;;5014948;28;20196;-53
2023/06/24 01:08:50;;;;;;;13.43;11.10;;;16.00;99.90;;;;;;5011518;28;20214;-53
2023/06/24 01:11:17;;;;;;;14.77;11.50;;;16.00;99.90;;;;;;5018551;28;20215;-52
2023/06/24 01:13:44;;;;;;;12.23;11.00;;;16.00;99.90;;;;;;5023967;28;20200;-54
2023/06/24 01:16:18;;;;;;;12.30;10.70;;;16.00;99.90;;;;;;5015400;28;20261;-51
2023/06/24 01:18:49;;;;;;;12.80;10.53;;;16.00;99.90;;;;;;5020181;28;20291;-55
2023/06/24 01:21:31;;;;;;;17.80;11.00;;;16.00;99.90;;;;;;5020070;28;20219;-53
2023/06/24 01:24:42;;;;;;;13.80;10.80;;;16.00;99.90;;;;;;5010486;28;20199;-52
2023/06/24 01:27:29;;;;;;;15.87;11.40;;;15.90;99.90;;;;;;5017637;28;20207;-49
2023/06/24 01:30:28;;;;;;;11.40;10.20;;;15.90;99.90;;;;;;5005495;28;20274;-53
2023/06/24 01:33:00;;;;;;;15.93;10.40;;;15.90;99.90;;;;;;5019882;28;20200;-54
2023/06/24 01:35:32;;;;;;;13.33;10.07;;;15.80;99.90;;;;;;5019812;28;20187;-55
2023/06/24 01:38:02;;;;;;;11.57;10.37;;;15.70;99.90;;;;;;5007862;28;20757;-51
2023/06/24 01:40:32;;;;;;;12.53;10.73;;;15.70;99.90;;;;;;5018327;28;20928;-52
2023/06/24 01:43:01;;;;;;;15.37;11.33;;;15.70;99.90;;;;;;5021551;28;20215;-49
2023/06/24 01:45:31;;;;;;;11.37;10.20;;;15.70;99.90;;;;;;5019384;28;20563;-55
2023/06/24 01:48:02;;;;;;;13.57;10.03;;;15.60;99.90;;;;;;5008857;28;20191;-53
2023/06/24 01:50:33;;;;;;;11.60;9.43;;;15.60;99.90;;;;;;5022120;28;20200;-53
2023/06/24 01:53:03;;;;;;;11.67;10.30;;;15.60;99.90;;;;;;5010138;28;20816;-51
2023/06/24 01:55:32;;;;;;;12.57;9.33;;;15.50;99.90;;;;;;5017336;28;20215;-55
2023/06/24 01:58:02;;;;;;;10.03;9.10;;;15.50;99.90;;;;;;5020878;28;20200;-53
2023/06/24 02:00:30;;;;;;;12.40;9.67;;;15.50;99.90;;;;;;5017484;28;20277;-53
2023/06/24 02:02:58;;;;;;;11.20;9.23;;;15.50;99.90;;;;;;5022605;28;20206;-52
2023/06/24 02:05:27;;;;;;;12.97;10.10;;;15.50;99.90;;;;;;5013270;28;20246;-54
2023/06/24 02:07:55;;;;;;;11.13;10.00;;;15.40;99.90;;;;;;5022045;28;20230;-50
2023/06/24 02:10:23;;;;;;;13.53;10.07;;;15.30;99.90;;;;;;5011728;28;21014;-50
2023/06/24 02:12:52;;;;;;;11.30;10.03;;;15.20;99.90;;;;;;5023207;28;20255;-50
2023/06/24 02:15:22;;;;;;;10.83;9.73;;;15.20;99.90;;;;;;5015510;28;20273;-52
2023/06/24 02:17:51;;;;;;;11.73;9.53;;;15.20;99.90;;;;;;5017697;28;20200;-49
2023/06/24 02:20:21;;;;;;;11.40;10.20;;;15.20;99.90;;;;;;5018110;28;20265;-51
2023/06/24 02:22:49;;;;;;;13.33;10.00;;;15.10;99.90;;;;;;5023564;28;20192;-53
2023/06/24 02:25:17;;;;;;;11.27;9.77;;;15.10;99.90;;;;;;5008096;28;20204;-51
2023/06/24 02:27:45;;;;;;;12.53;10.53;;;15.00;99.90;;;;;;5019716;28;20643;-49
2023/06/24 02:30:15;;;;;;;9.83;8.87;;;15.00;99.90;;;;;;5015328;28;20208;-51
2023/06/24 02:32:42;;;;;;;9.70;8.80;;;14.90;99.90;;;;;;5020092;28;20207;-51
2023/06/24 02:35:09;;;;;;;10.63;9.53;;;14.80;99.90;;;;;;5019858;28;20250;-52
2023/06/24 02:37:36;;;;;;;11.87;9.83;;;14.80;99.90;;;;;;5023069;28;20612;-49
2023/06/24 02:40:06;;;;;;;11.50;9.57;;;14.80;99.90;;;;;;5006364;28;20635;-48
2023/06/24 02:42:33;;;;;;;11.07;9.70;;;14.70;99.90;;;;;;5019329;28;20702;-53
2023/06/24 02:45:01;;;;;;;12.60;9.43;;;14.70;99.90;;;;;;5021056;28;20208;-48
2023/06/24 02:47:28;;;;;;;10.27;9.17;;;14.70;99.90;;;;;;5018380;28;20299;-50
2023/06/24 02:49:58;;;;;;;12.17;10.00;;;14.70;99.90;;;;;;5022320;28;20220;-54
2023/06/24 02:52:28;;;;;;;10.00;9.00;;;14.60;99.90;;;;;;5016508;28;20395;-48
2023/06/24 02:54:56;;;;;;;10.10;8.73;;;14.70;99.90;;;;;;5013240;28;20288;-52
2023/06/24 02:57:44;;;;;;;10.63;9.40;;;14.60;99.90;;;;;;5021400;28;20204;-49
2023/06/24 03:00:44;;;;;;;11.47;9.33;;;14.60;99.90;;;;;;5024807;28;20223;-53
2023/06/24 03:03:11;;;;;;;11.17;8.70;;;14.50;99.90;;;;;;5020065;28;20303;-50
2023/06/24 03:05:48;;;;;;;10.80;9.50;;;14.50;99.90;;;;;;5015627;28;20199;-51
2023/06/24 03:08:15;;;;;;;11.53;9.50;;;14.50;99.90;;;;;;5021087;28;20196;-50
2023/06/24 03:10:44;;;;;;;11.57;9.20;;;14.50;99.90;;;;;;5024631;28;20240;-51
2023/06/24 03:13:19;;;;;;;11.37;9.20;;;14.40;99.90;;;;;;5009709;28;20936;-48
2023/06/24 03:15:51;;;;;;;10.10;9.00;;;14.40;99.90;;;;;;5021205;28;20192;-47
2023/06/24 03:18:18;;;;;;;10.70;9.33;;;14.40;99.90;;;;;;5015257;28;20810;-52
2023/06/24 03:20:47;;;;;;;11.03;8.83;;;14.40;99.90;;;;;;5024971;28;20238;-48
2023/06/24 03:23:18;;;;;;;10.20;9.10;;;14.30;99.90;;;;;;5021213;28;20284;-50
2023/06/24 03:25:45;;;;;;;9.97;8.97;;;14.30;99.90;;;;;;5024785;28;20188;-51
2023/06/24 03:28:12;;;;;;;10.13;9.20;;;14.30;99.90;;;;;;5005276;28;20242;-50
2023/06/24 03:30:46;;;;;;;11.23;9.33;;;14.30;99.90;;;;;;5022926;28;20212;-49
2023/06/24 03:33:18;;;;;;;10.73;9.63;;;14.30;99.90;;;;;;5021023;28;21039;-47
2023/06/24 03:35:45;;;;;;;12.53;9.50;;;14.20;99.90;;;;;;5022026;28;20535;-55
2023/06/24 03:38:16;;;;;;;10.23;9.20;;;14.20;99.90;;;;;;5021183;28;20269;-48
2023/06/24 03:40:43;;;;;;;12.43;9.17;;;14.20;99.90;;;;;;5018508;28;20208;-51
2023/06/24 03:43:10;;;;;;;11.67;9.50;;;14.20;99.90;;;;;;5011250;28;20686;-47
2023/06/24 03:45:37;;;;;;;9.47;8.50;;;14.30;99.90;;;;;;5016258;28;20999;-48
2023/06/24 03:48:06;;;;;;;13.30;9.37;;;14.20;99.90;;;;;;5022936;28;20200;-50
2023/06/24 03:50:33;;;;;;;10.43;9.37;;;14.20;99.90;;;;;;5009239;28;20713;-53
2023/06/24 03:53:00;;;;;;;12.40;9.00;;;14.20;99.90;;;;;;5009471;28;20207;-52
2023/06/24 03:55:28;;;;;;;10.83;9.03;;;14.30;99.90;;;;;;5021730;28;20215;-50
2023/06/24 03:57:55;;;;;;;10.57;9.17;;;14.30;99.90;;;;;;5011837;28;21218;-52
2023/06/24 04:00:23;;;;;;;10.80;9.40;;;14.30;99.90;;;;;;5020541;28;20706;-49
2023/06/24 04:02:49;;;;;;;11.30;8.63;;;14.30;99.90;;;;;;5020217;28;20301;-52
2023/06/24 04:05:18;;;;;;;11.10;9.70;;;14.30;99.90;;;;;;5020165;28;20204;-52
2023/06/24 04:07:46;;;;;;;11.47;8.83;;;14.40;99.90;;;;;;5005373;28;20893;-53
2023/06/24 04:10:14;;;;;;;10.90;9.67;;;14.40;99.90;;;;;;5023221;28;20232;-52
2023/06/24 04:12:41;;;;;;;12.47;9.33;;;14.50;99.90;;;;;;5008149;28;20208;-47
2023/06/24 04:15:09;;;;;;;14.30;9.47;;;14.50;99.90;;;;;;5021369;28;20270;-51
2023/06/24 04:17:36;;;;;;;9.80;8.67;;;14.60;99.90;;;;;;5016175;28;20207;-49
2023/06/24 04:20:08;;;;;;;11.70;9.27;;;14.70;99.90;;;;;;5023928;28;20211;-50
2023/06/24 04:22:37;;;;;;;13.60;9.53;;;14.80;99.90;;;;;;5016801;28;20309;-52
2023/06/24 04:25:05;;;;;;;11.80;9.53;;;14.80;99.90;;;;;;5023851;28;20654;-51
2023/06/24 04:27:33;;;;;;;9.83;8.83;;;14.80;99.90;;;;;;5009162;28;20203;-52
2023/06/24 04:29:59;;;;;;;13.43;9.70;;;14.90;99.90;;;;;;5020607;28;20297;-48
2023/06/24 04:32:26;;;;;;;12.83;9.53;;;14.90;99.90;;;;;;5021656;28;20723;-47
2023/06/24 04:34:54;;;;;;;10.53;8.60;;;15.00;99.90;;;;;;5023337;28;20184;-50
2023/06/24 04:37:20;;;;;;;12.20;9.47;;;15.00;99.90;;;;;;5014987;28;20208;-49
2023/06/24 04:39:50;;;;;;;11.43;9.00;;;15.10;99.90;;;;;;5014028;28;20991;-52
2023/06/24 04:42:17;;;;;;;11.53;9.67;;;15.10;99.90;;;;;;5021974;28;20270;-47
2023/06/24 04:44:44;;;;;;;12.73;8.83;;;15.10;99.90;;;;;;5013918;28;20199;-52
2023/06/24 04:47:13;;;;;;;12.00;7.47;;;15.20;99.90;;;;;;5024514;28;20254;-49
2023/06/24 04:49:40;;;;;;;8.80;7.90;;;15.20;99.90;;;;;;5020764;28;20943;-48
2023/06/24 04:52:08;;;;;;;8.83;7.90;;;15.20;99.90;;;;;;5018553;28;21055;-51
2023/06/24 04:54:34;;;;;;;8.73;7.83;;;15.20;99.90;;;;;;5018153;28;20231;-47
2023/06/24 04:57:03;;;;;;;8.13;7.30;;;15.30;99.90;;;;;;5023422;28;20254;-47
2023/06/24 04:59:29;;;;;;;8.57;7.67;;;15.30;99.90;;;;;;5011480;28;20216;-51
2023/06/24 05:01:56;;;;;;;8.40;7.60;;;15.40;99.90;;;;;;5023298;28;20603;-50
2023/06/24 05:04:23;;;;;;;9.03;6.77;;;15.40;99.90;;;;;;5016654;28;20816;-52
2023/06/24 05:06:50;;;;;;;11.20;7.10;;;15.50;99.90;;;;;;5022508;28;20215;-50
2023/06/24 05:09:17;;;;;;;9.00;7.10;;;15.50;99.90;;;;;;5020264;28;20207;-52
2023/06/24 05:11:43;;;;;;;9.40;6.83;;;15.60;99.90;;;;;;5021030;28;20207;-52
2023/06/24 05:14:12;;;;;;;9.00;7.07;;;15.60;99.90;;;;;;5022898;28;20203;-52
2023/06/24 05:16:39;;;;;;;8.90;6.27;;;15.70;99.90;;;;;;5001518;28;20842;-54
2023/06/24 05:19:05;;;;;;;8.17;6.40;;;15.80;99.90;;;;;;5024391;28;20199;-53
2023/06/24 05:21:32;;;;;;;8.40;6.47;;;15.80;99.90;;;;;;5021142;28;20628;-50
2023/06/24 05:23:59;;;;;;;10.93;6.10;;;15.80;99.90;;;;;;5021092;28;20207;-50
2023/06/24 05:26:26;;;;;;;8.37;6.10;;;15.90;99.90;;;;;;5020849;28;20278;-49
2023/06/24 05:28:53;;;;;;;7.30;6.60;;;15.90;99.90;;;;;;5018257;28;20203;-54
2023/06/24 05:31:21;;;;;;;6.63;6.03;;;16.00;99.90;;;;;;5010333;28;20228;-53
2023/06/24 05:33:48;;;;;;;7.97;5.93;;;16.10;99.90;;;;;;5021394;28;20176;-48
2023/06/24 05:36:15;;;;;;;8.70;5.53;;;16.20;99.90;;;;;;5023756;28;20628;-51
2023/06/24 05:38:41;;;;;;;7.77;5.97;;;16.20;99.90;;;;;;5014398;28;20265;-48
2023/06/24 05:41:08;;;;;;;8.67;5.73;;;16.20;99.90;;;;;;5020423;28;20208;-55
2023/06/24 05:43:35;;;;;;;6.67;4.90;;;16.30;99.90;;;;;;5019817;28;20283;-51
2023/06/24 05:46:02;;;;;;;6.20;5.60;;;16.30;99.90;;;;;;5011728;28;20200;-46
2023/06/24 05:48:30;;;;;;;6.40;5.57;;;16.40;99.90;;;;;;5019777;28;20208;-54
2023/06/24 05:50:57;;;;;;;5.90;5.27;;;16.40;99.90;;;;;;5019095;28;20251;-53
2023/06/24 05:53:24;;;;;;;5.67;5.07;;;16.50;99.90;;;;;;5019312;28;20188;-54
2023/06/24 05:55:51;;;;;;;7.10;5.00;;;16.50;99.90;;;;;;5015127;28;20450;-52
2023/06/24 05:58:18;;;;;;;5.10;4.70;;;16.60;99.90;;;;;;5022733;28;20195;-52
2023/06/24 06:00:45;;;;;;;5.63;4.60;;;16.60;99.90;;;;;;5019491;28;20250;-48
2023/06/24 06:03:11;;;;;;;8.73;5.03;;;16.70;99.90;;;;;;4995779;28;20306;-52
2023/06/24 06:05:39;;;;;;;7.50;5.00;;;16.80;99.90;;;;;;5017714;28;20254;-50
2023/06/24 06:08:06;;;;;;;7.60;6.17;;;16.80;99.90;;;;;;5019816;28;20200;-54
2023/06/24 06:10:33;;;;;;;6.27;5.73;;;16.90;99.90;;;;;;5016377;28;20251;-48
2023/06/24 06:13:00;;;;;;;9.03;5.37;;;17.00;99.90;;;;;;5021092;28;20246;-51
2023/06/24 06:15:27;;;;;;;5.50;4.40;;;17.00;99.90;;;;;;5015563;28;20967;-52
2023/06/24 06:17:54;;;;;;;5.83;4.83;;;17.10;99.90;;;;;;5001082;28;20208;-52
2023/06/24 06:20:20;;;;;;;8.07;5.33;;;17.10;99.90;;;;;;5020219;28;20924;-47
2023/06/24 06:22:50;;;;;;;5.57;3.77;;;17.10;99.90;;;;;;5012567;28;20291;-52
2023/06/24 06:25:17;;;;;;;5.17;3.87;;;17.20;99.90;;;;;;5022048;28;20269;-51
2023/06/24 06:27:44;;;;;;;5.97;4.43;;;17.20;99.90;;;;;;4997592;28;20277;-50
2023/06/24 06:30:12;;;;;;;6.37;4.60;;;17.30;99.90;;;;;;5017508;28;20250;-52
2023/06/24 06:32:39;;;;;;;5.40;4.63;;;17.30;99.90;;;;;;5000583;28;20584;-49
2023/06/24 06:35:07;;;;;;;7.87;4.77;;;17.40;99.90;;;;;;5024571;28;20249;-55
2023/06/24 06:37:34;;;;;;;7.97;6.03;;;17.40;99.90;;;;;;5025536;28;20692;-50
2023/06/24 06:40:03;;;;;;;6.53;4.57;;;17.40;99.90;;;;;;5006150;28;20238;-49
2023/06/24 06:42:30;;;;;;;5.67;5.07;;;17.50;99.90;;;;;;5017349;28;20306;-51
2023/06/24 06:44:56;;;;;;;8.87;6.07;;;17.50;99.90;;;;;;5012502;28;20761;-49
2023/06/24 06:47:24;;;;;;;7.97;5.13;;;17.60;99.90;;;;;;4997371;28;20208;-53
2023/06/24 06:49:50;;;;;;;7.80;5.20;;;17.60;99.90;;;;;;5006134;28;20616;-52
2023/06/24 06:52:17;;;;;;;6.30;4.73;;;17.70;99.90;;;;;;5013102;28;20215;-56
2023/06/24 06:54:44;;;;;;;8.53;4.53;;;17.80;99.90;;;;;;5021513;28;20956;-52
2023/06/24 06:57:12;;;;;;;4.50;4.10;;;17.90;99.90;;;;;;5017776;28;20713;-53
2023/06/24 06:59:39;;;;;;;5.67;4.53;;;17.90;99.90;;;;;;5021999;28;20270;-51
2023/06/24 07:02:07;;;;;;;6.80;4.40;;;17.90;99.90;;;;;;5013901;28;20212;-50
2023/06/24 07:04:33;;;;;;;5.60;3.80;;;17.90;99.90;;;;;;4995690;28;20312;-53
2023/06/24 07:07:00;;;;;;;4.63;3.97;;;17.90;99.90;;;;;;5018187;28;20251;-51
2023/06/24 07:09:27;;;;;;;5.67;3.90;;;18.00;99.90;;;;;;5021427;28;20200;-52
2023/06/24 07:11:54;;;;;;;4.67;4.27;;;18.00;99.90;;;;;;5022760;28;20383;-55
2023/06/24 07:14:22;;;;;;;5.53;4.33;;;18.00;99.90;;;;;;5013913;28;20295;-49
2023/06/24 07:16:49;;;;;;;4.00;3.70;;;18.10;99.90;;;;;;5015734;28;20208;-54
2023/06/24 07:19:16;;;;;;;6.87;4.30;;;18.20;99.90;;;;;;5016146;28;20228;-53
2023/06/24 07:21:42;;;;;;;4.07;3.77;;;18.20;99.90;;;;;;5003787;28;20311;-55
2023/06/24 07:24:09;;;;;;;5.60;4.80;;;18.30;99.90;;;;;;5017009;28;20708;-50
2023/06/24 07:26:36;;;;;;;7.17;3.83;;;18.40;99.90;;;;;;5018851;28;20188;-54
2023/06/24 07:29:08;;;;;;;5.63;4.27;;;18.40;99.90;;;;;;5009365;28;20239;-49
2023/06/24 07:31:36;;;;;;;6.27;4.37;;;18.50;99.90;;;;;;5022853;28;20212;-54
2023/06/24 07:34:03;;;;;;;4.80;4.10;;;18.40;99.90;;;;;;5019587;28;20262;-52
2023/06/24 07:36:30;;;;;;;4.30;3.90;;;18.50;99.90;;;;;;4992238;28;21358;-50
2023/06/24 07:38:57;;;;;;;5.60;4.13;;;18.50;99.90;;;;;;5015806;28;20203;-50
2023/06/24 07:41:24;;;;;;;4.50;3.67;;;18.60;99.90;;;;;;5019072;28;20248;-53
2023/06/24 07:43:51;;;;;;;4.07;3.70;;;18.70;99.90;;;;;;5016944;28;20714;-50
2023/06/24 07:46:17;;;;;;;4.37;3.63;;;18.70;99.90;;;;;;5014008;28;20208;-50
2023/06/24 07:48:46;;;;;;;6.37;3.90;;;18.70;99.90;;;;;;5020505;28;20200;-52
2023/06/24 07:51:12;;;;;;;4.50;4.10;;;18.70;99.90;;;;;;5002160;28;20215;-51
2023/06/24 07:53:39;;;;;;;4.80;3.70;;;18.90;99.90;;;;;;5010157;28;20196;-55
2023/06/24 07:56:06;;;;;;;3.80;3.50;;;18.90;99.90;;;;;;5020751;28;20277;-48
2023/06/24 07:58:34;;;;;;;4.53;3.93;;;19.00;99.90;;;;;;5012281;28;20239;-52
2023/06/24 08:01:01;;;;;;;4.50;4.10;;;19.00;99.90;;;;;;5018265;28;20224;-51
2023/06/24 08:03:28;;;;;;;4.97;4.10;;;19.10;99.90;;;;;;5013722;28;20350;-49
2023/06/24 08:05:57;;;;;;;5.53;3.43;;;19.20;99.90;;;;;;5024657;28;20228;-51
2023/06/24 08:08:23;;;;;;;6.37;4.00;;;19.30;99.90;;;;;;4993225;28;20215;-50
2023/06/24 08:10:50;;;;;;;4.03;3.43;;;19.30;99.90;;;;;;5024903;28;20629;-50
2023/06/24 08:13:17;;;;;;;6.10;3.80;;;19.40;99.90;;;;;;5013195;28;20235;-48
2023/06/24 08:15:44;;;;;;;4.03;3.40;;;19.50;99.90;;;;;;5006964;28;20254;-51
2023/06/24 08:18:11;;;;;;;5.60;3.30;;;19.60;99.90;;;;;;5020201;28;20200;-51
2023/06/24 08:20:38;;;;;;;3.37;3.07;;;19.60;99.90;;;;;;5023537;28;21002;-49
2023/06/24 08:23:06;;;;;;;5.33;3.90;;;19.70;99.90;;;;;;4998113;28;20243;-50
2023/06/24 08:29:13;;;;;;;3.73;3.43;;;19.90;99.90;;;;;;5018369;28;20199;-49
2023/06/24 08:31:40;;;;;;;5.27;3.13;;;19.90;99.90;;;;;;5014183;28;20228;-55
2023/06/24 08:34:07;;;;;;;4.07;3.03;;;19.90;99.90;;;;;;5018327;28;20203;-49
2023/06/24 08:36:34;;;;;;;3.77;3.47;;;20.00;99.90;;;;;;5022258;28;20216;-52
2023/06/24 08:39:02;;;;;;;3.20;2.93;;;20.10;99.90;;;;;;4991370;28;20281;-55
2023/06/24 08:41:29;;;;;;;7.80;6.30;;;20.20;99.90;;;;;;5017678;28;20212;-55
2023/06/24 08:43:56;;;;;;;3.37;3.17;;;20.40;99.90;;;;;;5023130;28;20270;-48
2023/06/24 08:46:25;;;;;;;5.77;3.50;;;20.50;99.90;;;;;;5007025;28;20250;-52
2023/06/24 08:49:00;;;;;;;3.67;3.37;;;20.70;99.90;;;;;;5021591;28;20200;-54
2023/06/24 08:51:30;;;;;;;4.10;3.60;;;20.50;99.90;;;;;;5013540;28;20242;-54
2023/06/24 08:53:59;;;;;;;5.70;2.73;;;20.60;99.90;;;;;;5001065;28;20626;-53
2023/06/24 08:56:27;;;;;;;3.67;3.20;;;20.70;99.90;;;;;;5013729;28;20184;-52
2023/06/24 08:58:55;;;;;;;3.43;3.10;;;20.90;99.90;;;;;;5019031;28;20195;-51
2023/06/24 09:01:22;;;;;;;5.07;2.83;;;21.00;99.90;;;;;;5003610;28;20274;-49
2023/06/24 09:03:48;;;;;;;3.90;3.47;;;20.90;99.90;;;;;;5015205;28;20777;-53
2023/06/24 09:06:15;;;;;;;7.37;3.50;;;20.90;99.90;;;;;;5017784;28;20637;-50
2023/06/24 09:08:52;;;;;;;3.50;3.23;;;20.90;99.90;;;;;;5001140;28;20216;-51
2023/06/24 09:11:23;;;;;;;4.00;3.33;;;21.00;99.90;;;;;;5013308;28;20263;-52
2023/06/24 09:13:57;;;;;;;4.20;3.57;;;21.10;99.90;;;;;;5019638;28;20202;-51
2023/06/24 09:16:24;;;;;;;4.43;3.20;;;21.10;99.90;;;;;;5005706;28;21726;-49
2023/06/24 09:18:52;;;;;;;5.10;3.10;;;;;;;;;;5021865;28;20234;-53
2023/06/24 09:21:24;;;;;;;2.97;2.77;;;21.30;99.90;;;;;;5019076;28;20463;-53
2023/06/24 09:23:55;;;;;;;3.17;2.88;;;21.20;99.90;;;;;;4999448;28;20215;-51
2023/06/24 09:26:24;;;;;;;3.67;3.38;;;21.20;99.90;;;;;;5005975;28;20207;-55
2023/06/24 09:28:51;;;;;;;3.65;3.35;;;21.20;99.90;;;;;;5019131;28;20193;-51
2023/06/24 09:31:19;;;;;;;4.18;3.75;;;21.30;99.90;;;;;;5015613;28;20220;-52
2023/06/24 09:33:46;;;;;;;7.13;3.60;;;21.40;99.90;;;;;;5014927;28;20254;-51
2023/06/24 09:36:14;;;;;;;4.35;3.25;;;21.50;99.90;;;;;;5018114;28;20242;-47
2023/06/24 09:38:44;;;;;;;4.20;3.88;;;21.60;99.90;;;;;;4993581;28;20216;-54
2023/06/24 09:41:11;;;;;;;3.47;3.10;;;21.50;99.90;;;;;;5018938;28;20222;-52
2023/06/24 09:43:39;;;;;;;4.10;3.55;;;21.50;99.90;;;;;;5018636;28;20773;-55
2023/06/24 09:46:07;;;;;;;4.40;3.30;;;21.60;99.90;;;;;;5018885;28;21457;-51
2023/06/24 09:48:36;;;;;;;5.32;3.67;;;21.50;99.90;;;;;;5009845;28;20878;-55
2023/06/24 09:51:05;;;;;;;4.13;3.72;;;21.60;99.90;;;;;;5014185;28;20216;-49
2023/06/24 09:53:33;;;;;;;6.25;3.70;;;21.70;99.90;;;;;;5020585;28;20274;-52
2023/06/24 09:56:01;;;;;;;4.22;3.78;;;21.70;99.90;;;;;;5000940;28;20714;-51
2023/06/24 09:58:31;;;;;;;4.47;4.07;;;21.70;99.90;;;;;;5019113;28;20192;-52
2023/06/24 10:01:01;;;;;;;4.93;3.60;;;21.80;99.90;;;;;;5006392;28;20312;-54
2023/06/24 10:03:29;;;;;;;4.82;3.88;;;21.90;99.90;;;;;;5011355;28;20235;-53
2023/06/24 10:05:59;;;;;;;6.15;3.97;;;21.90;99.90;;;;;;5013257;28;20192;-53
2023/06/24 10:08:26;;;;;;;4.00;3.58;;;21.90;99.90;;;;;;5020209;28;20192;-53
2023/06/24 10:10:53;;;;;;;4.20;3.40;;;22.00;99.90;;;;;;4994796;28;20256;-48
2023/06/24 10:13:20;;;;;;;3.92;3.47;;;22.00;99.90;;;;;;5007785;28;20192;-50
2023/06/24 10:15:48;;;;;;;4.13;3.83;;;22.00;99.90;;;;;;5010718;28;21020;-53
2023/06/24 10:18:34;;;;;;;3.45;3.15;;;22.00;99.90;;;;;;5015736;28;20204;-49
2023/06/24 10:21:02;;;;;;;3.78;3.47;;;22.10;99.90;;;;;;5005485;28;20250;-55
2023/06/24 10:23:34;;;;;;;4.05;3.65;;;22.20;99.90;;;;;;5019995;28;20220;-47
2023/06/24 10:26:01;;;;;;;3.78;3.47;;;22.30;99.90;;;;;;4988414;28;20196;-50
2023/06/24 10:28:51;;;;;;;3.90;3.10;;;22.30;99.90;;;;;;5021159;28;20669;-50
2023/06/24 10:31:18;;;;;;;4.10;3.78;;;22.40;99.90;;;;;;5018362;28;20247;-54
2023/06/24 10:33:54;;;;;;;4.00;3.40;;;22.60;99.90;;;;;;5022990;28;20203;-56
2023/06/24 10:36:33;;;;;;;5.03;3.67;;;22.60;99.90;;;;;;5010694;28;20196;-54
2023/06/24 10:39:00;;;;;;;5.32;3.40;;;22.60;99.90;;;;;;5007638;28;20212;-53
2023/06/24 10:41:27;;;;;;;3.50;3.20;;;22.60;99.90;;;;;;4994459;28;20231;-55
2023/06/24 10:43:57;;;;;;;3.80;3.38;;;22.80;99.90;;;;;;5020914;28;20235;-56
2023/06/24 10:46:27;;;;;;;3.88;3.58;;;22.90;99.90;;;;;;5023051;28;20195;-49
2023/06/24 10:48:54;;;;;;;121.97;19.73;;;22.90;99.90;;;;;;5014790;28;20184;-47
2023/06/24 10:51:21;;;;;;;4.65;4.13;;;22.90;99.90;;;;;;5002859;28;20220;-49
2023/06/24 10:53:49;;;;;;;6.10;4.30;;;22.80;99.90;;;;;;5023041;28;20241;-54
2023/06/24 10:56:17;;;;;;;4.35;3.97;;;22.90;99.90;;;;;;4997571;28;20204;-52
2023/06/24 10:58:56;;;;;;;3.38;3.17;;;22.90;99.90;;;;;;5012541;28;20213;-55
2023/06/24 11:01:23;;;;;;;5.20;4.05;;;22.90;99.90;;;;;;5015947;28;20235;-52
2023/06/24 11:03:49;;;;;;;4.07;3.70;;;23.10;99.90;;;;;;5018070;28;20219;-49
2023/06/24 11:06:16;;;;;;;4.03;3.72;;;23.10;99.90;;;;;;5011605;28;20684;-51
2023/06/24 11:08:46;;;;;;;4.32;3.90;;;23.10;99.90;;;;;;5017214;28;20211;-53
2023/06/24 11:11:22;;;;;;;4.38;4.00;;;23.40;99.90;;;;;;4996189;28;20231;-48
2023/06/24 11:13:49;;;;;;;4.00;3.45;;;23.50;99.90;;;;;;5006230;28;20594;-55
2023/06/24 11:16:21;;;;;;;3.50;3.20;;;23.50;99.90;;;;;;5008831;28;20209;-55
2023/06/24 11:18:48;;;;;;;4.82;3.85;;;23.60;99.90;;;;;;5016342;28;20582;-54
2023/06/24 11:21:15;;;;;;;5.30;3.92;;;23.40;99.90;;;;;;5008619;28;20235;-50
2023/06/24 11:23:43;;;;;;;4.10;3.75;;;23.40;99.90;;;;;;5022221;28;20742;-56
2023/06/24 11:26:09;;;;;;;4.55;3.70;;;23.40;99.90;;;;;;4987978;28;21340;-51
2023/06/24 11:28:38;;;;;;;4.43;3.83;;;23.50;99.90;;;;;;5012841;28;20195;-52
2023/06/24 11:31:08;;;;;;;3.97;3.65;;;23.60;99.90;;;;;;5021824;28;20304;-54
2023/06/24 11:33:35;;;;;;;4.47;4.18;;;23.50;99.90;;;;;;5018574;28;20238;-50
2023/06/24 11:36:02;;;;;;;3.80;3.50;;;23.50;99.90;;;;;;5010907;28;20312;-54
2023/06/24 11:38:31;;;;;;;4.35;3.92;;;23.70;99.90;;;;;;5008273;28;20216;-57
2023/06/24 11:40:59;;;;;;;5.93;4.78;;;23.90;99.90;;;;;;5016629;28;20282;-50
2023/06/24 11:43:27;;;;;;;4.60;4.15;;;24.00;99.60;;;;;;4990977;28;20212;-56
2023/06/24 11:45:55;;;;;;;6.03;4.22;;;23.90;99.90;;;;;;5019982;28;20722;-53
2023/06/24 11:48:22;;;;;;;4.75;4.25;;;24.10;99.40;;;;;;5012768;28;20633;-56
2023/06/24 11:50:54;;;;;;;4.20;3.80;;;24.10;99.60;;;;;;5011800;28;20481;-54
2023/06/24 11:53:30;;;;;;;6.57;4.50;;;24.10;99.70;;;;;;5015316;28;20207;-52
2023/06/24 11:55:57;;;;;;;18.15;4.68;;;24.30;99.70;;;;;;5021951;28;20199;-53
2023/06/24 11:58:24;;;;;;;4.07;3.75;;;24.40;99.60;;;;;;4997049;28;20224;-58
2023/06/24 12:00:52;;;;;;;5.30;4.18;;;24.40;99.80;;;;;;5014691;28;20241;-57
2023/06/24 12:03:25;;;;;;;3.95;3.55;;;24.50;99.00;;;;;;5015828;28;20222;-55
2023/06/24 12:05:51;;;;;;;5.55;4.35;;;24.50;99.00;;;;;;5018054;28;20219;-53
2023/06/24 12:08:19;;;;;;;11.02;4.90;;;24.50;99.20;;;;;;5008280;28;20564;-55
2023/06/24 12:10:46;;;;;;;7.55;4.15;;;24.50;99.50;;;;;;5022778;28;20224;-47
2023/06/24 12:13:13;;;;;;;6.20;4.72;;;24.70;99.90;;;;;;4994426;28;20228;-57
2023/06/24 12:15:42;;;;;;;5.68;4.50;;;25.00;98.50;;;;;;5012967;28;20207;-51
2023/06/24 12:18:09;;;;;;;6.30;4.28;;;25.00;98.80;;;;;;5008895;28;20954;-46
2023/06/24 12:20:37;;;;;;;4.45;4.05;;;25.00;98.50;;;;;;5005645;28;20204;-45
2023/06/24 12:23:04;;;;;;;7.57;4.22;;;25.00;98.30;;;;;;5015363;28;20930;-46
2023/06/24 12:25:31;;;;;;;5.25;4.18;;;25.10;98.20;;;;;;5008555;28;20220;-47
2023/06/24 12:27:59;;;;;;;4.30;4.00;;;24.80;98.20;;;;;;5021087;28;20294;-51
2023/06/24 12:30:26;;;;;;;6.85;4.32;;;24.70;98.70;;;;;;4988578;28;20231;-57
2023/06/24 12:32:53;;;;;;;4.10;3.80;;;24.80;99.00;;;;;;5020146;28;20216;-49
2023/06/24 12:35:20;;;;;;;4.90;4.40;;;24.80;99.10;;;;;;5014261;28;20651;-56
2023/06/24 12:37:48;;;;;;;5.35;4.85;;;24.90;98.80;;;;;;5009371;28;20278;-53
2023/06/24 12:40:15;;;;;;;4.55;4.10;;;25.10;99.80;;;;;;5021143;28;20249;-57
2023/06/24 12:42:42;;;;;;;4.68;4.25;;;25.30;98.80;;;;;;5017490;28;20204;-50
2023/06/24 12:45:09;;;;;;;6.60;3.90;;;25.50;97.60;;;;;;5003491;28;20247;-51
2023/06/24 12:47:37;;;;;;;4.30;3.90;;;25.60;97.20;;;;;;5011240;28;20927;-53
2023/06/24 12:50:06;;;;;;;6.00;3.80;;;25.60;97.00;;;;;;5012620;28;20243;-45
2023/06/24 12:52:33;;;;;;;5.47;4.22;;;25.80;97.10;;;;;;5010614;28;22179;-45
2023/06/24 12:55:03;;;;;;;5.50;3.78;;;26.10;96.80;;;;;;5014759;28;20552;-57